Time;durP1;ratioP1;P1;durP2;ratioP2;P2;SDS_P1;SDS_P2;PMS_P1;PMS_P2;Temp;Humidity;BMP_temperature;BMP_pressure;BME280_temperature;BME280_humidity;BME280_pressure;Samples;Min_cycle;Max_cycle;Signal;HPM_P1;HPM_P2
2022/03/12 00:00:43;;;;;;;26.38;15.20;;;;;;;9.52;44.79;101261.50;5046865;28;20259;-81
2022/03/12 00:03:10;;;;;;;23.73;14.88;;;;;;;9.51;44.06;101251.91;5054853;28;20020;-81
2022/03/12 00:05:45;;;;;;;27.08;14.65;;;;;;;9.52;43.36;101258.00;5047490;28;20009;-81
2022/03/12 00:08:12;;;;;;;27.77;15.35;;;;;;;9.51;44.76;101262.31;5049957;28;20024;-80
2022/03/12 00:10:41;;;;;;;26.92;15.07;;;;;;;9.50;43.88;101254.47;5045539;28;20067;-82
2022/03/12 00:13:06;;;;;;;29.98;15.00;;;;;;;9.50;44.46;101259.66;5043673;28;20271;-81
2022/03/12 00:15:32;;;;;;;27.80;15.73;;;;;;;9.51;43.98;101262.31;5044180;28;20016;-81
2022/03/12 00:17:58;;;;;;;30.98;16.25;;;;;;;9.49;44.98;101258.78;5048479;28;20043;-81
2022/03/12 00:20:26;;;;;;;29.30;15.43;;;;;;;9.49;44.67;101264.00;5052949;28;20195;-80
2022/03/12 00:22:52;;;;;;;30.05;16.13;;;;;;;9.50;44.23;101267.47;5053446;28;20017;-81
2022/03/12 00:25:22;;;;;;;27.02;15.23;;;;;;;9.49;44.46;101260.50;5046554;28;20056;-80
2022/03/12 00:27:50;;;;;;;28.30;15.65;;;;;;;9.49;45.45;101265.72;5059577;28;20013;-81
2022/03/12 00:30:18;;;;;;;28.13;16.27;;;;;;;9.49;44.23;101273.53;5045904;28;20088;-81
2022/03/12 00:32:44;;;;;;;30.45;15.90;;;;;;;9.48;44.97;101267.41;5050974;28;20029;-80
2022/03/12 00:35:09;;;;;;;31.38;16.35;;;;;;;9.49;44.54;101279.59;5048472;28;20032;-81
2022/03/12 00:37:35;;;;;;;27.40;15.80;;;;;;;9.50;45.05;101276.16;5046312;28;20067;-80
2022/03/12 00:40:01;;;;;;;29.65;16.33;;;;;;;9.50;45.02;101285.66;5055425;28;20062;-81
2022/03/12 00:42:26;;;;;;;30.55;16.75;;;;;;;9.51;44.36;101283.13;5050870;28;20285;-80
2022/03/12 00:44:51;;;;;;;31.20;16.85;;;;;;;9.51;45.53;101287.44;5062029;28;20017;-81
2022/03/12 00:47:17;;;;;;;32.85;17.50;;;;;;;9.53;44.99;101288.38;5045655;28;20055;-81
2022/03/12 00:49:46;;;;;;;30.75;17.15;;;;;;;9.53;45.93;101294.47;5051369;28;20323;-81
2022/03/12 00:52:11;;;;;;;;;;;;;;;9.57;45.25;101283.34;5051320;28;20018;-81
2022/03/12 00:54:36;;;;;;;33.13;16.80;;;;;;;9.55;45.73;101289.34;5062533;28;19901;-81
2022/03/12 00:57:02;;;;;;;31.35;17.55;;;;;;;9.53;45.79;101290.97;5045053;28;20541;-81
2022/03/12 00:59:27;;;;;;;35.83;17.45;;;;;;;9.51;46.39;101288.31;5042796;28;20287;-81
2022/03/12 01:01:56;;;;;;;34.78;18.42;;;;;;;9.49;46.95;101279.59;5044445;28;20037;-81
2022/03/12 01:04:21;;;;;;;32.10;18.17;;;;;;;9.50;47.37;101291.78;5043832;28;20031;-81
2022/03/12 01:06:47;;;;;;;32.28;17.20;;;;;;;9.49;46.79;101284.81;5046686;28;20040;-81
2022/03/12 01:09:13;;;;;;;31.60;16.95;;;;;;;9.46;48.11;101289.91;5049541;28;20247;-81
2022/03/12 01:11:39;;;;;;;31.63;17.02;;;;;;;9.46;47.39;101286.38;5044477;28;20062;-81
2022/03/12 01:14:06;;;;;;;33.40;17.08;;;;;;;9.47;47.90;101296.88;5051027;28;20008;-80
2022/03/12 01:16:34;;;;;;;29.73;15.75;;;;;;;9.48;48.27;101289.94;5050853;28;20029;-81
2022/03/12 01:19:00;;;;;;;30.77;15.65;;;;;;;9.48;48.39;101293.44;5032625;28;20029;-80
2022/03/12 01:21:26;;;;;;;31.35;16.52;;;;;;;9.50;48.22;101293.47;5047613;28;20100;-81
2022/03/12 01:23:51;;;;;;;31.92;17.10;;;;;;;9.52;47.67;101299.63;5053933;28;20172;-81
2022/03/12 01:26:18;;;;;;;31.80;17.33;;;;;;;9.51;49.01;101296.13;5053768;28;20028;-80
2022/03/12 01:28:45;;;;;;;35.67;18.00;;;;;;;9.51;49.47;101298.72;5045331;28;20082;-80
2022/03/12 01:31:14;;;;;;;36.17;18.25;;;;;;;9.51;49.69;101301.31;5048077;28;20028;-80
2022/03/12 01:33:40;;;;;;;36.72;18.95;;;;;;;9.50;49.30;101309.09;5046833;28;20365;-81
2022/03/12 01:36:06;;;;;;;32.92;17.35;;;;;;;9.50;50.09;101304.78;5054997;28;20020;-80
2022/03/12 01:38:34;;;;;;;33.13;17.58;;;;;;;9.48;50.28;101314.22;5046903;28;20048;-81
2022/03/12 01:41:03;;;;;;;32.97;16.98;;;;;;;9.46;51.57;101310.72;5042118;28;20021;-81
2022/03/12 01:43:31;;;;;;;;;;;;;;;9.48;51.37;101313.34;5048879;28;20016;-81
2022/03/12 01:46:01;;;;;;;31.45;16.70;;;;;;;9.39;51.61;101313.91;5047478;28;19901;-81
2022/03/12 01:48:27;;;;;;;;;;;;;;;9.40;51.33;101310.50;5044169;28;20017;-81
2022/03/12 01:50:52;;;;;;;36.75;17.10;;;;;;;9.34;52.42;101318.97;5050654;28;19893;-81
2022/03/12 01:53:18;;;;;;;32.58;16.63;;;;;;;9.29;53.02;101312.69;5047324;28;20021;-81
2022/03/12 01:55:43;;;;;;;37.38;18.27;;;;;;;9.26;53.22;101322.13;5043075;28;20045;-81
2022/03/12 01:58:10;;;;;;;34.20;17.65;;;;;;;9.20;55.39;101323.66;5043635;28;20031;-81
2022/03/12 02:00:47;;;;;;;34.92;18.15;;;;;;;9.15;54.44;101314.81;5041635;28;20020;-82
2022/03/12 02:03:18;;;;;;;33.53;17.45;;;;;;;9.12;55.64;101319.88;5042405;28;20018;-81
2022/03/12 02:05:44;;;;;;;32.85;17.20;;;;;;;9.09;56.02;101314.56;5041242;28;20080;-81
2022/03/12 02:08:14;;;;;;;36.00;18.25;;;;;;;9.07;55.09;101311.03;5041099;28;20025;-82
2022/03/12 02:10:44;;;;;;;33.40;18.35;;;;;;;9.08;54.18;101305.00;5042544;28;20164;-82
2022/03/12 02:13:12;;;;;;;38.92;19.30;;;;;;;9.07;55.87;101311.03;5038588;28;20025;-81
2022/03/12 02:15:38;;;;;;;41.00;19.90;;;;;;;9.07;55.39;101310.13;5044725;28;20033;-81
2022/03/12 02:18:04;;;;;;;38.17;19.17;;;;;;;9.07;55.41;101310.13;5044459;28;20041;-81
2022/03/12 02:20:29;;;;;;;38.90;19.63;;;;;;;9.07;55.79;101313.63;5044915;28;20067;-81
2022/03/12 02:22:55;;;;;;;36.35;17.95;;;;;;;9.07;56.02;101308.44;5047000;28;20024;-81
2022/03/12 02:25:34;;;;;;;39.10;18.73;;;;;;;9.06;56.47;101319.66;5046727;28;20272;-81
2022/03/12 02:28:01;;;;;;;37.33;19.33;;;;;;;9.05;56.17;101317.88;5044556;28;20203;-81
2022/03/12 02:30:42;;;;;;;38.38;18.88;;;;;;;9.04;56.56;101311.78;5052516;28;20013;-81
2022/03/12 02:33:08;;;;;;;35.88;18.35;;;;;;;9.04;56.18;101310.91;5046522;28;20236;-81
2022/03/12 02:35:36;;;;;;;38.88;19.20;;;;;;;9.03;56.79;101311.72;5046601;28;20022;-81
2022/03/12 02:38:07;;;;;;;38.38;18.35;;;;;;;9.02;55.80;101313.47;5051056;28;20020;-81
2022/03/12 02:40:33;;;;;;;39.13;19.50;;;;;;;9.02;55.15;101326.47;5044917;28;20271;-81
2022/03/12 02:43:00;;;;;;;36.75;19.27;;;;;;;9.06;55.40;101322.25;5046748;28;20228;-80
2022/03/12 02:45:29;;;;;;;36.05;18.73;;;;;;;9.07;55.09;101324.03;5050960;28;20028;-80
2022/03/12 02:47:55;;;;;;;37.35;19.25;;;;;;;9.08;55.29;101325.81;5045581;28;20224;-80
2022/03/12 02:50:23;;;;;;;41.40;19.48;;;;;;;9.08;54.86;101330.09;5045423;28;20005;-80
2022/03/12 02:52:49;;;;;;;37.85;19.40;;;;;;;9.04;55.52;101329.97;5046976;28;20059;-80
2022/03/12 02:55:19;;;;;;;37.88;19.83;;;;;;;9.02;54.45;101338.53;5047463;28;21222;-80
2022/03/12 02:57:49;;;;;;;37.75;18.40;;;;;;;9.03;54.73;101333.41;5045273;28;20025;-80
2022/03/12 03:00:16;;;;;;;36.63;18.02;;;;;;;9.00;55.12;101329.81;5049189;28;20306;-81
2022/03/12 03:02:41;;;;;;;35.95;18.58;;;;;;;9.01;55.00;101342.00;5043928;28;20025;-81
2022/03/12 03:05:44;;;;;;;38.50;18.52;;;;;;;9.00;55.16;101341.09;5046281;28;20027;-80
2022/03/12 03:08:12;;;;;;;36.67;17.25;;;;;;;8.98;56.06;101334.97;5043584;28;20062;-81
2022/03/12 03:10:40;;;;;;;35.08;17.75;;;;;;;8.96;56.01;101338.31;5044459;28;20017;-81
2022/03/12 03:13:14;;;;;;;36.33;17.87;;;;;;;8.94;56.10;101340.00;5045903;28;20295;-81
2022/03/12 03:15:42;;;;;;;39.10;17.73;;;;;;;8.91;55.83;101340.75;5046656;28;20476;-81
2022/03/12 03:18:10;;;;;;;38.80;18.98;;;;;;;8.86;56.48;101345.78;5044026;28;20029;-81
2022/03/12 03:20:36;;;;;;;37.25;17.27;;;;;;;8.82;56.04;101355.97;5045755;28;20279;-81
2022/03/12 03:23:01;;;;;;;38.10;18.13;;;;;;;8.77;56.59;101354.91;5043172;28;20040;-82
2022/03/12 03:25:27;;;;;;;38.60;17.88;;;;;;;8.72;57.60;101354.75;5045662;28;20299;-82
2022/03/12 03:27:52;;;;;;;37.50;16.95;;;;;;;8.67;58.78;101346.75;5055303;28;20017;-81
2022/03/12 03:30:17;;;;;;;35.13;17.08;;;;;;;8.63;59.07;101354.38;5043923;28;20087;-82
2022/03/12 03:32:42;;;;;;;33.33;17.33;;;;;;;8.56;59.15;101357.53;5048148;28;20017;-81
2022/03/12 03:35:08;;;;;;;36.33;17.35;;;;;;;8.48;59.38;101354.66;5044866;28;20017;-82
2022/03/12 03:37:33;;;;;;;34.55;17.25;;;;;;;8.42;59.79;101357.84;5044124;28;20028;-82
2022/03/12 03:39:59;;;;;;;34.38;17.17;;;;;;;8.38;60.36;101368.06;5044387;28;20029;-82
2022/03/12 03:42:24;;;;;;;35.28;17.30;;;;;;;8.35;60.24;101363.63;5045319;28;20020;-82
2022/03/12 03:44:52;;;;;;;32.03;16.77;;;;;;;8.32;60.52;101363.50;5046047;28;20239;-81
2022/03/12 03:47:17;;;;;;;39.53;17.15;;;;;;;8.29;60.91;101371.16;5046868;28;20039;-80
2022/03/12 03:49:44;;;;;;;37.33;17.95;;;;;;;8.25;60.64;101361.47;5044819;28;20018;-80
2022/03/12 03:52:10;;;;;;;37.60;17.30;;;;;;;8.23;61.23;101368.31;5054284;28;20083;-80
2022/03/12 03:54:35;;;;;;;33.17;17.38;;;;;;;8.21;61.79;101364.75;5049751;28;20092;-80
2022/03/12 03:57:01;;;;;;;35.35;17.45;;;;;;;8.19;62.04;101368.16;5044598;28;20021;-80
2022/03/12 03:59:28;;;;;;;33.30;16.10;;;;;;;8.18;62.89;101374.19;5050940;28;20021;-80
2022/03/12 04:01:53;;;;;;;31.73;15.98;;;;;;;8.18;63.09;101376.78;5047599;28;20017;-80
2022/03/12 04:04:22;;;;;;;30.58;15.45;;;;;;;8.18;64.58;101375.88;5046506;28;20040;-80
2022/03/12 04:06:47;;;;;;;32.28;15.05;;;;;;;8.17;64.53;101379.31;5044761;28;20362;-80
2022/03/12 04:09:13;;;;;;;32.03;14.80;;;;;;;8.17;65.03;101380.19;5047461;28;20025;-80
2022/03/12 04:11:43;;;;;;;31.92;14.80;;;;;;;8.17;65.57;101389.72;5045519;28;20092;-81
2022/03/12 04:14:08;;;;;;;27.17;13.93;;;;;;;8.13;65.72;101387.81;5045653;28;20167;-80
2022/03/12 04:16:37;;;;;;;33.40;16.00;;;;;;;8.08;65.94;101389.31;5008759;28;1162432;-81
2022/03/12 04:19:07;;;;;;;33.15;17.60;;;;;;;8.04;66.17;101390.91;5044281;28;20033;-82
2022/03/12 04:21:32;;;;;;;32.40;17.67;;;;;;;8.01;66.34;101398.56;5048968;28;20012;-81
2022/03/12 04:23:57;;;;;;;32.30;15.85;;;;;;;7.97;66.50;101397.53;5050534;28;20276;-81
2022/03/12 04:26:23;;;;;;;32.70;14.95;;;;;;;7.95;66.43;101391.38;5045668;28;20017;-81
2022/03/12 04:28:49;;;;;;;30.85;15.52;;;;;;;7.92;66.66;101392.94;5049472;28;20029;-81
2022/03/12 04:31:18;;;;;;;30.83;15.20;;;;;;;7.86;66.92;101390.97;5045409;28;20021;-81
2022/03/12 04:33:46;;;;;;;31.10;14.93;;;;;;;7.82;66.71;101402.03;5046514;28;20271;-81
2022/03/12 04:36:13;;;;;;;31.05;15.30;;;;;;;7.78;66.06;101400.16;5047005;28;20017;-81
2022/03/12 04:38:38;;;;;;;33.75;16.15;;;;;;;7.76;66.32;101397.50;5043832;28;20093;-82
2022/03/12 04:41:06;;;;;;;34.53;16.50;;;;;;;7.72;66.42;101400.75;5046657;28;20009;-82
2022/03/12 04:43:32;;;;;;;35.60;17.05;;;;;;;7.66;66.57;101397.88;5041476;28;20286;-82
2022/03/12 04:45:59;;;;;;;33.10;16.42;;;;;;;7.64;67.20;101399.53;5042526;28;20399;-82
2022/03/12 04:48:26;;;;;;;33.45;16.33;;;;;;;7.64;67.30;101402.13;5057835;28;20029;-81
2022/03/12 04:50:53;;;;;;;33.13;16.38;;;;;;;7.61;67.39;101395.09;5043907;28;20051;-82
2022/03/12 04:53:20;;;;;;;33.90;16.63;;;;;;;7.59;68.14;101398.41;5048596;28;20097;-82
2022/03/12 04:55:46;;;;;;;33.63;16.40;;;;;;;7.57;68.48;101410.44;5041989;28;20039;-81
2022/03/12 04:58:12;;;;;;;35.20;16.38;;;;;;;7.56;69.13;101400.88;5048790;28;20072;-81
2022/03/12 05:00:39;;;;;;;32.83;15.68;;;;;;;7.50;68.92;101409.28;5044383;28;20268;-82
2022/03/12 05:03:10;;;;;;;31.23;16.02;;;;;;;7.48;69.79;101416.97;5049072;28;20024;-81
2022/03/12 05:05:39;;;;;;;29.63;14.75;;;;;;;7.45;69.96;101419.44;5049055;28;20017;-81
2022/03/12 05:08:18;;;;;;;32.10;15.83;;;;;;;7.42;69.17;101426.22;5052333;28;20077;-81
2022/03/12 05:10:49;;;;;;;;;;;;;;;7.45;66.68;101418.56;5044170;28;20276;-82
2022/03/12 05:13:16;;;;;;;30.60;13.73;;;;;;;7.36;69.32;101420.72;5054541;28;19915;-82
2022/03/12 05:15:42;;;;;;;29.63;14.90;;;;;;;7.31;69.46;101418.81;5037949;28;20282;-82
2022/03/12 05:18:12;;;;;;;29.88;14.60;;;;;;;7.25;69.33;101420.25;5042875;28;20037;-80
2022/03/12 05:20:40;;;;;;;33.80;16.05;;;;;;;7.22;69.36;101422.69;5046450;28;20021;-80
2022/03/12 05:23:07;;;;;;;31.23;15.93;;;;;;;7.20;68.80;101424.31;5058959;28;20028;-80
2022/03/12 05:25:40;;;;;;;33.20;15.93;;;;;;;7.14;69.35;101420.63;5047984;28;21145;-80
2022/03/12 05:28:06;;;;;;;35.58;16.52;;;;;;;7.12;69.21;101432.59;5053578;28;20080;-80
2022/03/12 05:30:31;;;;;;;35.63;16.05;;;;;;;7.08;69.33;101440.16;5047721;28;20020;-80
2022/03/12 05:32:57;;;;;;;30.23;15.27;;;;;;;7.05;69.36;101446.09;5055872;28;20276;-80
2022/03/12 05:35:23;;;;;;;35.28;16.55;;;;;;;7.01;69.56;101439.00;5044066;28;20077;-80
2022/03/12 05:37:51;;;;;;;31.08;15.57;;;;;;;6.99;69.28;101445.81;5057390;28;20021;-80
2022/03/12 05:40:19;;;;;;;30.00;16.13;;;;;;;6.95;69.26;101446.47;5044138;28;20033;-80
2022/03/12 05:42:46;;;;;;;34.28;16.13;;;;;;;6.92;69.99;101446.31;5036190;28;20110;-80
2022/03/12 05:45:12;;;;;;;32.22;15.80;;;;;;;6.89;70.36;101448.78;5040457;28;20039;-80
2022/03/12 05:47:38;;;;;;;31.30;15.40;;;;;;;6.90;70.34;101455.75;5042372;28;20041;-81
2022/03/12 05:50:05;;;;;;;30.70;15.02;;;;;;;6.90;70.81;101454.03;5039071;28;20029;-81
2022/03/12 05:52:30;;;;;;;32.67;16.27;;;;;;;6.91;70.59;101452.34;5041442;28;20005;-81
2022/03/12 05:54:55;;;;;;;28.13;15.07;;;;;;;6.93;70.90;101455.88;5042490;28;20263;-82
2022/03/12 05:57:21;;;;;;;32.72;15.10;;;;;;;6.93;71.64;101458.47;5042454;28;20029;-82
2022/03/12 05:59:48;;;;;;;29.63;14.52;;;;;;;6.92;71.44;101465.38;5041911;28;20074;-82
2022/03/12 06:02:16;;;;;;;29.30;14.45;;;;;;;6.92;72.21;101464.47;5041555;28;20060;-81
2022/03/12 06:04:42;;;;;;;27.27;14.13;;;;;;;6.93;72.43;101474.00;5051374;28;20006;-81
2022/03/12 06:07:14;;;;;;;28.30;14.65;;;;;;;6.92;73.12;101464.47;5044311;28;20021;-82
2022/03/12 06:09:40;;;;;;;28.48;14.35;;;;;;;6.90;73.47;101463.50;5040627;28;20366;-82
2022/03/12 06:12:07;;;;;;;28.30;14.65;;;;;;;6.89;73.48;101464.31;5042760;28;20236;-82
2022/03/12 06:14:34;;;;;;;26.23;14.43;;;;;;;6.90;73.30;101466.09;5048504;28;20029;-81
2022/03/12 06:17:00;;;;;;;27.65;14.75;;;;;;;6.90;73.62;101466.09;5047319;28;20066;-81
2022/03/12 06:19:25;;;;;;;29.40;13.60;;;;;;;6.90;73.84;101472.16;5042647;28;20021;-82
2022/03/12 06:21:50;;;;;;;26.50;13.20;;;;;;;6.90;74.31;101472.16;5041559;28;20033;-82
2022/03/12 06:24:15;;;;;;;26.70;14.00;;;;;;;6.87;74.43;101474.59;5044298;28;20055;-81
2022/03/12 06:26:43;;;;;;;25.85;13.05;;;;;;;6.88;74.48;101481.56;5045010;28;20325;-81
2022/03/12 06:29:13;;;;;;;25.38;12.48;;;;;;;6.87;74.91;101476.31;5042131;28;20267;-81
2022/03/12 06:31:42;;;;;;;26.35;13.35;;;;;;;6.89;75.02;101479.84;5041679;28;20279;-81
2022/03/12 06:34:10;;;;;;;26.17;13.60;;;;;;;6.90;75.24;101482.53;5041973;28;20037;-81
2022/03/12 06:36:37;;;;;;;23.88;13.43;;;;;;;6.90;75.54;101482.53;5042593;28;20045;-82
2022/03/12 06:39:04;;;;;;;25.02;12.98;;;;;;;6.94;75.42;101486.16;5040109;28;20024;-81
2022/03/12 06:41:34;;;;;;;24.38;11.93;;;;;;;6.96;75.74;101485.41;5047124;28;20161;-82
2022/03/12 06:43:59;;;;;;;25.20;12.75;;;;;;;6.97;75.80;101491.50;5041627;28;20017;-81
2022/03/12 06:46:25;;;;;;;25.58;12.57;;;;;;;6.99;75.96;101487.25;5042866;28;20240;-81
2022/03/12 06:48:51;;;;;;;23.38;12.68;;;;;;;7.01;76.04;101496.00;5041083;28;20045;-81
2022/03/12 06:51:16;;;;;;;20.98;12.27;;;;;;;7.03;76.04;101503.84;5047044;28;20040;-82
2022/03/12 06:53:42;;;;;;;23.15;12.70;;;;;;;7.05;76.28;101508.28;5042983;28;20005;-81
2022/03/12 06:56:08;;;;;;;22.08;12.30;;;;;;;7.08;76.54;101502.34;5043705;28;20178;-81
2022/03/12 06:58:34;;;;;;;20.95;11.82;;;;;;;7.12;76.28;101506.88;5045785;28;20017;-81
2022/03/12 07:01:00;;;;;;;21.92;11.93;;;;;;;7.16;76.36;101510.53;5041568;28;20025;-81
2022/03/12 07:03:25;;;;;;;22.52;11.90;;;;;;;7.20;76.34;101507.25;5043073;28;20078;-81
2022/03/12 07:05:51;;;;;;;21.65;11.23;;;;;;;7.26;76.34;101507.56;5046710;28;20097;-81
2022/03/12 07:08:19;;;;;;;19.80;11.27;;;;;;;7.30;77.24;101509.50;5056401;28;20177;-81
2022/03/12 07:10:49;;;;;;;17.35;11.05;;;;;;;7.36;76.85;101507.19;5053013;28;20029;-82
2022/03/12 07:13:14;;;;;;;18.75;11.52;;;;;;;7.41;77.96;101520.34;5055867;28;20032;-81
2022/03/12 07:15:40;;;;;;;21.10;12.55;;;;;;;7.44;77.92;101516.22;5053845;28;20096;-82
2022/03/12 07:18:05;;;;;;;18.48;11.43;;;;;;;7.50;77.59;101518.19;5047761;28;20299;-82
2022/03/12 07:20:30;;;;;;;18.63;11.15;;;;;;;7.56;78.05;101533.13;5052051;28;20020;-82
2022/03/12 07:22:56;;;;;;;17.15;10.43;;;;;;;7.63;77.77;101524.81;5055555;28;20251;-82
2022/03/12 07:25:22;;;;;;;16.40;10.48;;;;;;;7.70;77.78;101526.91;5048648;28;20033;-81
2022/03/12 07:27:47;;;;;;;16.45;10.50;;;;;;;7.77;77.49;101526.34;5046478;28;20025;-82
2022/03/12 07:30:14;;;;;;;16.50;10.20;;;;;;;7.82;77.72;101539.53;5045215;28;20080;-82
2022/03/12 07:32:42;;;;;;;14.95;10.30;;;;;;;7.89;78.15;101538.13;5045141;28;20283;-82
2022/03/12 07:35:08;;;;;;;14.25;9.68;;;;;;;7.99;77.97;101542.91;5049441;28;20021;-82
2022/03/12 07:37:34;;;;;;;15.43;9.68;;;;;;;8.06;77.95;101547.56;5050215;28;20074;-82
2022/03/12 07:39:59;;;;;;;15.02;9.43;;;;;;;8.15;78.04;101554.88;5045164;28;20280;-83
2022/03/12 07:42:25;;;;;;;15.27;9.90;;;;;;;8.33;77.64;101549.63;5047238;28;20249;-82
2022/03/12 07:44:50;;;;;;;14.13;9.25;;;;;;;8.43;76.86;101554.41;5045923;28;20026;-82
2022/03/12 07:47:15;;;;;;;13.65;9.23;;;;;;;8.52;76.60;101557.41;5056818;28;20509;-82
2022/03/12 07:49:41;;;;;;;13.68;9.30;;;;;;;8.68;76.52;101558.09;5052565;28;20017;-82
2022/03/12 07:52:08;;;;;;;13.48;8.63;;;;;;;8.78;76.42;101560.25;5047865;28;20029;-83
2022/03/12 07:54:34;;;;;;;13.40;8.57;;;;;;;8.90;76.46;101561.59;5046052;28;20264;-82
2022/03/12 07:57:00;;;;;;;12.98;8.35;;;;;;;9.06;75.82;101553.59;5043686;28;20021;-81
2022/03/12 07:59:26;;;;;;;13.45;8.38;;;;;;;9.35;74.90;101564.31;5047729;28;20165;-80
2022/03/12 08:01:52;;;;;;;11.45;7.82;;;;;;;9.57;74.29;101566.03;5047521;28;20021;-81
2022/03/12 08:04:17;;;;;;;10.98;7.47;;;;;;;9.79;73.82;101572.97;5048043;28;20025;-80
2022/03/12 08:06:43;;;;;;;13.20;7.53;;;;;;;10.06;73.32;101569.63;5041805;28;20276;-81
2022/03/12 08:09:09;;;;;;;13.75;7.55;;;;;;;10.08;72.77;101574.06;5041253;28;20033;-81
2022/03/12 08:11:35;;;;;;;11.05;7.20;;;;;;;9.95;72.82;101581.34;5036156;28;20089;-80
2022/03/12 08:14:15;;;;;;;11.73;7.88;;;;;;;9.76;73.22;101580.66;5033614;28;20021;-81
2022/03/12 08:16:41;;;;;;;11.80;7.45;;;;;;;9.58;74.23;101581.69;5032852;28;20042;-81
2022/03/12 08:19:08;;;;;;;13.98;7.60;;;;;;;9.51;74.57;101590.09;5031620;28;20173;-81
2022/03/12 08:21:35;;;;;;;13.55;8.10;;;;;;;9.46;75.64;101590.72;5035922;28;20104;-81
2022/03/12 08:24:02;;;;;;;12.23;7.80;;;;;;;9.43;75.25;101586.31;5034354;28;20033;-81
2022/03/12 08:26:28;;;;;;;15.18;8.10;;;;;;;9.46;75.35;101593.34;5042620;28;20260;-81
2022/03/12 08:28:54;;;;;;;15.50;8.02;;;;;;;9.50;75.58;101597.84;5043654;28;20037;-81
2022/03/12 08:31:19;;;;;;;15.00;8.45;;;;;;;9.53;75.30;101595.34;5037005;28;20085;-81
2022/03/12 08:33:45;;;;;;;14.35;8.77;;;;;;;9.61;75.37;101606.09;5042340;28;20075;-81
2022/03/12 08:36:13;;;;;;;16.38;9.25;;;;;;;9.67;75.70;101607.19;5040246;28;20029;-81
2022/03/12 08:38:38;;;;;;;20.10;9.75;;;;;;;9.75;74.68;101610.13;5037397;28;20034;-81
2022/03/12 08:41:06;;;;;;;16.98;9.55;;;;;;;9.82;74.81;101616.44;5036525;28;20077;-81
2022/03/12 08:43:33;;;;;;;18.88;9.98;;;;;;;9.88;74.35;101614.09;5044365;28;20535;-80
2022/03/12 08:46:00;;;;;;;19.90;10.05;;;;;;;9.94;74.89;101616.06;5043675;28;20089;-81
2022/03/12 08:48:26;;;;;;;19.75;10.52;;;;;;;9.97;74.20;101617.03;5047620;28;20028;-81
2022/03/12 08:50:51;;;;;;;22.85;10.93;;;;;;;10.04;74.32;101618.19;5047372;28;20044;-80
2022/03/12 08:53:17;;;;;;;20.90;11.07;;;;;;;10.10;73.74;101613.19;5040647;28;20028;-81
2022/03/12 08:55:42;;;;;;;21.35;11.50;;;;;;;10.14;73.22;101615.09;5036601;28;20029;-82
2022/03/12 08:58:08;;;;;;;24.95;12.07;;;;;;;10.18;73.70;101616.97;5044752;28;20029;-81
2022/03/12 09:00:34;;;;;;;30.27;12.73;;;;;;;10.22;73.52;101626.66;5041999;28;20076;-81
2022/03/12 09:03:00;;;;;;;29.75;13.05;;;;;;;10.26;73.49;101619.88;5045251;28;20060;-83
2022/03/12 09:05:25;;;;;;;28.33;12.63;;;;;;;10.29;73.53;101621.72;5039510;28;20029;-79
2022/03/12 09:07:52;;;;;;;31.42;13.00;;;;;;;10.33;73.11;101621.88;5036175;28;20083;-80
2022/03/12 09:10:22;;;;;;;24.63;11.85;;;;;;;10.40;71.99;101620.41;5038572;28;20094;-80
2022/03/12 09:12:47;;;;;;;30.40;11.13;;;;;;;10.46;71.01;101630.16;5032535;28;20110;-80
2022/03/12 09:15:13;;;;;;;27.58;10.80;;;;;;;10.52;70.97;101633.88;5036763;28;20271;-80
2022/03/12 09:17:39;;;;;;;21.25;9.40;;;;;;;10.61;71.26;101641.16;5049654;28;20029;-80
2022/03/12 09:20:06;;;;;;;23.02;9.55;;;;;;;10.68;70.95;101632.72;5036696;28;20033;-80
2022/03/12 09:22:32;;;;;;;22.73;9.80;;;;;;;10.76;69.80;101632.97;5044112;28;20264;-80
2022/03/12 09:24:57;;;;;;;20.13;8.63;;;;;;;10.82;69.91;101629.69;5047275;28;20013;-79
2022/03/12 09:27:23;;;;;;;18.80;7.88;;;;;;;10.84;69.32;101630.66;5049787;28;20095;-76
2022/03/12 09:29:49;;;;;;;19.38;7.60;;;;;;;10.86;69.50;101629.91;5041135;28;20021;-76
2022/03/12 09:32:15;;;;;;;19.17;6.97;;;;;;;10.91;68.72;101622.22;5043730;28;20033;-76
2022/03/12 09:34:41;;;;;;;14.23;7.85;;;;;;;10.95;68.83;101622.38;5056446;28;20267;-76
2022/03/12 09:37:09;;;;;;;13.27;6.38;;;;;;;11.00;68.36;101624.25;5056699;28;20036;-76
2022/03/12 09:39:35;;;;;;;12.70;5.40;;;;;;;11.05;68.00;101630.50;5048602;28;20068;-76
2022/03/12 09:42:01;;;;;;;10.95;5.43;;;;;;;11.10;67.98;101626.34;5047513;28;20260;-76
2022/03/12 09:44:26;;;;;;;9.73;4.65;;;;;;;11.16;67.42;101629.16;5043279;28;20024;-77
2022/03/12 09:46:52;;;;;;;10.35;4.78;;;;;;;11.24;67.17;101632.91;5045020;28;20056;-77
2022/03/12 09:49:17;;;;;;;8.35;4.07;;;;;;;11.28;65.57;101621.75;5049867;28;20059;-77
2022/03/12 09:51:43;;;;;;;8.40;3.88;;;;;;;11.33;65.28;101615.81;5046303;28;20017;-76
2022/03/12 09:54:12;;;;;;;8.63;4.07;;;;;;;11.35;64.00;101619.34;5048938;28;20017;-77
2022/03/12 09:56:38;;;;;;;9.73;3.40;;;;;;;11.39;63.41;101629.03;5048670;28;20109;-80
2022/03/12 09:59:05;;;;;;;8.65;3.33;;;;;;;11.40;63.42;101625.63;5054919;28;20044;-80
2022/03/12 10:01:31;;;;;;;7.07;3.00;;;;;;;11.40;63.89;101633.44;5049948;28;20029;-79
2022/03/12 10:03:56;;;;;;;8.52;3.33;;;;;;;11.40;62.91;101633.44;5043145;28;20108;-81
2022/03/12 10:06:22;;;;;;;7.28;3.28;;;;;;;11.40;62.93;101633.44;5045491;28;20020;-79
2022/03/12 10:08:48;;;;;;;7.70;3.05;;;;;;;11.44;63.72;101640.50;5041265;28;20142;-79
2022/03/12 10:11:13;;;;;;;8.15;3.03;;;;;;;11.46;62.45;101642.34;5051051;28;20033;-81
2022/03/12 10:13:41;;;;;;;7.97;3.17;;;;;;;11.51;63.25;101642.47;5044922;28;20024;-79
2022/03/12 10:16:09;;;;;;;7.57;2.88;;;;;;;11.58;63.07;101643.56;5045182;28;20260;-79
2022/03/12 10:18:36;;;;;;;8.32;3.00;;;;;;;11.64;62.08;101643.75;5045235;28;20280;-80
2022/03/12 10:21:01;;;;;;;6.70;3.30;;;;;;;11.70;62.81;101651.78;5053370;28;20382;-79
2022/03/12 10:23:27;;;;;;;5.93;3.10;;;;;;;11.75;62.30;101645.00;5048452;28;20018;-79
2022/03/12 10:25:52;;;;;;;7.82;3.03;;;;;;;11.80;62.14;101647.75;5039300;28;20037;-80
2022/03/12 10:28:18;;;;;;;8.60;2.97;;;;;;;11.84;62.00;101652.22;5048989;28;20025;-76
2022/03/12 10:30:46;;;;;;;7.65;3.10;;;;;;;11.89;61.98;101635.00;5049996;28;20185;-76
2022/03/12 10:33:21;;;;;;;7.57;3.30;;;;;;;11.93;62.32;101633.34;5048582;28;20016;-77
2022/03/12 10:35:47;;;;;;;6.63;3.22;;;;;;;11.95;61.36;101636.94;5049332;28;20028;-77
2022/03/12 10:38:13;;;;;;;5.55;2.83;;;;;;;11.94;61.06;101638.66;5043274;28;20025;-77
2022/03/12 10:40:39;;;;;;;5.07;2.58;;;;;;;11.95;61.60;101650.00;5048336;28;20046;-77
2022/03/12 10:43:12;;;;;;;6.93;2.65;;;;;;;11.91;60.70;101646.38;5052770;28;20203;-77
2022/03/12 10:45:43;;;;;;;6.65;2.70;;;;;;;11.91;60.59;101654.19;5042042;28;20275;-77
2022/03/12 10:48:09;;;;;;;6.88;2.88;;;;;;;11.96;61.32;101649.16;5057539;28;20017;-77
2022/03/12 10:50:41;;;;;;;7.93;2.60;;;;;;;12.03;61.02;101656.34;5048854;28;20066;-76
2022/03/12 10:53:07;;;;;;;7.22;2.50;;;;;;;12.15;61.58;101642.75;5062325;28;20016;-76
2022/03/12 10:55:36;;;;;;;7.97;2.88;;;;;;;12.30;60.45;101653.66;5040856;28;20033;-80
2022/03/12 10:58:13;;;;;;;7.13;2.45;;;;;;;12.45;60.19;101644.50;5059310;28;20021;-79
2022/03/12 11:00:50;;;;;;;7.53;2.83;;;;;;;12.58;59.46;101641.38;5047197;28;20243;-79
2022/03/12 11:03:21;;;;;;;6.97;2.45;;;;;;;12.64;57.64;101638.06;5041755;28;20046;-79
2022/03/12 11:05:49;;;;;;;7.03;2.42;;;;;;;12.68;57.49;101642.53;5054675;28;20063;-80
2022/03/12 11:08:19;;;;;;;5.65;2.50;;;;;;;12.72;58.13;101638.31;5055456;28;20083;-79
2022/03/12 11:10:50;;;;;;;7.32;3.10;;;;;;;12.69;58.21;101639.09;5043088;28;20025;-79
2022/03/12 11:13:40;;;;;;;6.05;2.55;;;;;;;12.72;59.06;101643.53;5044343;28;20033;-79
2022/03/12 11:16:10;;;;;;;8.73;2.80;;;;;;;12.81;59.50;101646.38;5053356;28;20036;-79
2022/03/12 11:18:35;;;;;;;8.77;2.50;;;;;;;12.90;58.18;101649.22;5043519;28;20104;-79